17 août 2022

Temps Code Temps Temp. Vue Base cloud Vent METAR/SPECI
05:50
L
15 °C 250 m - 030° 030° 3 kt METAR EDWE 170350Z AUTO 03003KT 0250 R25/0350U // VV/// 15/15 Q1011
05:20
L
16 °C 250 m - Var Var 2 kt METAR EDWE 170320Z AUTO VRB02KT 0250 R25/0300N // VV/// 16/15 Q1011
04:50
L
15 °C 300 m - Var Var 1 kt METAR EDWE 170250Z AUTO VRB01KT 0300 R25/0350N // VV/// 15/15 Q1011
04:20
L
15 °C 250 m - 070° 070° 2 kt METAR EDWE 170220Z AUTO 07002KT 0250 R25/0275N // VV/// 15/15 Q1011
03:50
L
15 °C 200 m - 040° 040° 2 kt METAR EDWE 170150Z AUTO 04002KT 0200 R25/0375U // VV/// 15/15 Q1011
03:20
L
16 °C 200 m - Var Var 1 kt METAR EDWE 170120Z AUTO VRB01KT 0200 R25/0250N // VV/// 16/15 Q1011
02:50
L
15 °C 150 m - 020° 020° 2 kt METAR EDWE 170050Z AUTO 02002KT 0150 R25/0375N // VV/// 15/15 Q1011
02:20
L
16 °C 200 m - 040° 040° 1 kt METAR EDWE 170020Z AUTO 04001KT 0200 R25/0225N // VV/// 16/16 Q1011
01:50
L
17 °C 550 m - 110° 110° 2 kt METAR EDWE 162350Z AUTO 11002KT 0550 R25/1000U // FEW008/// 17/17 Q1011
01:20
L
17 °C 450 m 16.000 ft 080° 080° 3 kt METAR EDWE 162320Z AUTO 08003KT 0450 R25/P2000N // SCT007/// BKN160/// 17/17 Q1011
00:50
L
18 °C 1,4 km 15.000 ft Var Var 1 kt METAR EDWE 162250Z AUTO VRB01KT 1400 R25/1500U // BKN150/// 18/17 Q1011
00:20
L
17 °C 350 m 17.000 ft Var Var 1 kt METAR EDWE 162220Z AUTO VRB01KT 0350 R25/0450N // FEW009/// BKN170/// 17/17 Q1011

16 août 2022

Temps Code Temps Temp. Vue Base cloud Vent METAR/SPECI
23:50
L
18 °C 1 km 17.000 ft 090° 090° 1 kt METAR EDWE 162150Z AUTO 09001KT 1000 R25/P2000N // BKN170/// 18/17 Q1011
23:20
L
19 °C 1,3 km 16.000 ft Var Var 1 kt METAR EDWE 162120Z AUTO VRB01KT 1300 R25/1400U // BKN160/// BKN180/// 19/18 Q1011
22:50
L
18 °C 500 m 16.000 ft Var Var 2 kt METAR EDWE 162050Z AUTO VRB02KT 0500 R25/0400D // BKN160/// 18/17 Q1011
22:20
L
19 °C 350 m 17.000 ft 340° 340° 2 kt METAR EDWE 162020Z AUTO 34002KT 0350 R25/0400D // BKN170/// 19/18 Q1010
21:50
M
19 °C 5 km 15.000 ft Var Var 2 kt METAR EDWE 161950Z AUTO VRB02KT 5000 // BKN150/// BKN170/// 19/18 Q1010
21:20
M
20 °C 7 km 16.000 ft 330° 330° 6 kt METAR EDWE 161920Z AUTO 33006KT 7000 // BKN160/// 20/18 Q1010
20:50
V
20 °C 9 km - 320° 320° 7 kt METAR EDWE 161850Z AUTO 32007KT 9000 // FEW150/// SCT240/// 20/19 Q1009
06:20
M
19 °C 6 km 16.000 ft 140° 140° 4 kt METAR EDWE 160420Z AUTO 14004KT 6000 // SCT091/// OVC160/// 19/18 Q1005
05:50
M
19 °C 5 km 9.200 ft 180° 180° 4 kt METAR EDWE 160350Z AUTO 18004KT 150V210 5000 // BKN092/// 19/18 Q1005
05:20
I
18 °C 4,3 km - Var 000° 0 kt METAR EDWE 160320Z AUTO 00000KT 4300 // FEW100/// 18/17 Q1005
04:50
V
20 °C 9 km 10.000 ft 170° 170° 3 kt METAR EDWE 160250Z AUTO 17003KT 120V190 9000 // BKN100/// BKN160/// 20/18 Q1005
04:20
V
19 °C 10 km+ 15.000 ft Var Var 2 kt METAR EDWE 160220Z AUTO VRB02KT 9999 // FEW100/// SCT120/// OVC150/// 19/18 Q1005
03:50
V
19 °C 8 km 11.000 ft 220° 220° 3 kt METAR EDWE 160150Z AUTO 22003KT 8000 // FEW091/// OVC110/// 19/18 Q1005
03:20
V
19 °C 9 km 9.600 ft Var 000° 0 kt METAR EDWE 160120Z AUTO 00000KT 9000 // OVC096/// 19/18 Q1005
02:50
I
18 °C 4,7 km 9.600 ft 280° 280° 1 kt METAR EDWE 160050Z AUTO 28001KT 4700 // OVC096/// 18/18 Q1005
02:20
V
18 °C 10 km+ 9.400 ft Var 000° 0 kt METAR EDWE 160020Z AUTO 00000KT 9999 // BKN094/// OVC170/// 18/18 Q1005
01:50
V
19 °C 10 km+ 9.200 ft 140° 140° 3 kt METAR EDWE 152350Z AUTO 14003KT 9999 // BKN092/// OVC110/// 19/18 Q1005
01:20
V
19 °C 8 km 8.600 ft Var 000° 0 kt METAR EDWE 152320Z AUTO 00000KT 8000 // BKN086/// OVC120/// 19/18 Q1005
00:50
V
19 °C 10 km+ 11.000 ft Var 000° 0 kt METAR EDWE 152250Z AUTO 00000KT 9999 // BKN110/// OVC150/// 19/18 Q1005
00:20
V
19 °C 10 km+ 11.000 ft Var 000° 0 kt METAR EDWE 152220Z AUTO 00000KT 9999 // FEW090/// BKN110/// OVC150/// 19/18 Q1005

15 août 2022

Temps Code Temps Temp. Vue Base cloud Vent METAR/SPECI
23:50
V
20 °C 10 km+ 10.000 ft 200° 200° 4 kt METAR EDWE 152150Z AUTO 20004KT 9999 // OVC100/// 20/18 Q1005
23:20
V
19 °C 10 km+ 12.000 ft 170° 170° 3 kt METAR EDWE 152120Z AUTO 17003KT 140V200 9999 // OVC120/// 19/18 Q1005
22:50
V
19 °C 10 km+ 13.000 ft Var Var 1 kt METAR EDWE 152050Z AUTO VRB01KT 9999 // OVC130/// 19/17 Q1005
22:20
V
18 °C 10 km+ 14.000 ft 150° 150° 4 kt METAR EDWE 152020Z AUTO 15004KT 9999 // FEW120/// BKN140/// OVC160/// 18/17 Q1005
21:50
V
17 °C 10 km+ 13.000 ft 060° 060° 4 kt METAR EDWE 151950Z AUTO 06004KT 040V150 9999 // BKN130/// BKN210/// 17/17 Q1004
21:20
V
18 °C 10 km+ - 120° 120° 3 kt METAR EDWE 151920Z AUTO 12003KT 9999 // FEW140/// 18/17 Q1004
20:50
V
20 °C 10 km+ - Var Var 1 kt METAR EDWE 151850Z AUTO VRB01KT 9999 // NCD 20/17 Q1003
Données plus anciennes

Nous et des tiers suivons ton comportement sur Internet sur notre site Web à l'aide de cookies. Si tu continues, nous supposons que tu acceptes notre politique en matière de cookies. Apprendre plus